createdAt,value
2022-11-16T00:01:22.753Z,61.86
2022-11-16T00:04:26.496Z,61.47
2022-11-16T00:07:30.497Z,61.12
2022-11-16T00:10:34.539Z,61.09
2022-11-16T00:13:41.273Z,61.21
2022-11-16T00:16:46.127Z,61.09
2022-11-16T00:19:50.142Z,61.06
2022-11-16T00:22:53.536Z,61.10
2022-11-16T00:25:57.308Z,61.15
2022-11-16T00:29:00.837Z,61.95
2022-11-16T00:32:06.588Z,62.46
2022-11-16T00:35:11.210Z,62.94
2022-11-16T00:38:15.359Z,63.44
2022-11-16T00:41:20.384Z,62.72
2022-11-16T00:44:24.226Z,62.92
2022-11-16T00:47:29.589Z,62.59
2022-11-16T00:50:33.597Z,62.99
2022-11-16T00:53:37.660Z,63.58
2022-11-16T00:56:41.921Z,62.75
2022-11-16T00:59:45.462Z,62.75
2022-11-16T01:02:52.622Z,63.09
2022-11-16T01:06:01.903Z,62.89
2022-11-16T01:09:05.818Z,63.26
2022-11-16T01:12:10.936Z,64.02
2022-11-16T01:15:15.278Z,63.52
2022-11-16T01:18:20.149Z,63.60
2022-11-16T01:21:24.922Z,64.29
2022-11-16T01:24:29.045Z,64.42
2022-11-16T01:27:33.083Z,63.97
2022-11-16T01:30:38.406Z,64.12
2022-11-16T01:33:47.656Z,64.47
2022-11-16T01:36:57.702Z,64.14
2022-11-16T01:40:05.506Z,63.99
2022-11-16T01:43:17.473Z,63.96
2022-11-16T01:46:23.373Z,63.63
2022-11-16T01:49:36.320Z,63.96
2022-11-16T01:52:43.850Z,64.13
2022-11-16T01:55:49.771Z,64.02
2022-11-16T01:59:18.004Z,63.67
2022-11-16T02:02:22.454Z,63.62
2022-11-16T02:05:47.737Z,63.20
2022-11-16T02:09:24.767Z,65.09
2022-11-16T02:13:01.084Z,64.89
2022-11-16T02:16:28.243Z,64.07
2022-11-16T02:20:01.826Z,63.82
2022-11-16T02:23:45.081Z,63.53
2022-11-16T02:27:27.272Z,62.94
2022-11-16T02:30:33.394Z,62.68
2022-11-16T02:33:42.234Z,62.64
2022-11-16T02:36:50.774Z,62.11
2022-11-16T02:39:59.464Z,62.02
2022-11-16T02:43:08.621Z,61.79
2022-11-16T02:46:20.690Z,61.89
2022-11-16T02:49:26.671Z,61.58
2022-11-16T02:52:31.045Z,61.49
2022-11-16T02:55:37.333Z,61.33
2022-11-16T02:58:41.438Z,61.25
2022-11-16T03:01:53.453Z,61.66
2022-11-16T03:05:02.633Z,61.29
2022-11-16T03:08:19.593Z,61.57
2022-11-16T03:11:41.294Z,62.02
2022-11-16T03:14:50.356Z,61.17
2022-11-16T03:17:56.275Z,61.13
2022-11-16T03:21:11.191Z,61.17
2022-11-16T03:24:15.802Z,62.07
2022-11-16T03:27:31.369Z,62.67
2022-11-16T03:30:41.638Z,62.58
2022-11-16T03:33:51.649Z,62.27
2022-11-16T03:37:15.092Z,61.88
2022-11-16T03:40:21.602Z,62.04
2022-11-16T03:43:28.667Z,61.62
2022-11-16T03:46:32.305Z,61.41
2022-11-16T03:49:55.978Z,61.45
2022-11-16T03:53:00.906Z,60.94
2022-11-16T03:56:05.458Z,61.64
2022-11-16T03:59:09.079Z,61.62
2022-11-16T04:02:13.052Z,62.89
2022-11-16T04:05:36.154Z,61.57
2022-11-16T04:08:58.160Z,61.56
2022-11-16T04:12:19.205Z,61.72
2022-11-16T04:15:41.554Z,62.09
2022-11-16T04:19:02.983Z,61.87
2022-11-16T04:22:34.442Z,61.70
2022-11-16T04:25:41.284Z,61.66
2022-11-16T04:28:50.482Z,61.74
2022-11-16T04:32:11.336Z,62.18
2022-11-16T04:35:32.532Z,62.37
2022-11-16T04:38:37.902Z,61.99
2022-11-16T04:41:59.231Z,62.59
2022-11-16T04:45:23.861Z,62.63
2022-11-16T04:48:29.870Z,62.28
2022-11-16T04:51:33.552Z,62.07
2022-11-16T04:54:39.223Z,61.84
2022-11-16T04:57:43.230Z,62.05
2022-11-16T05:00:50.235Z,63.19
2022-11-16T05:03:54.237Z,62.64
2022-11-16T05:06:58.750Z,61.89
2022-11-16T05:10:05.459Z,61.48
2022-11-16T05:13:09.602Z,61.38
2022-11-16T05:16:13.166Z,61.88
2022-11-16T05:19:34.399Z,62.39
2022-11-16T05:22:38.418Z,61.48
2022-11-16T05:25:44.541Z,61.26
2022-11-16T05:28:48.039Z,60.83
2022-11-16T05:31:51.899Z,61.17
2022-11-16T05:34:55.796Z,61.38
2022-11-16T05:38:01.310Z,61.36
2022-11-16T05:41:08.107Z,61.40
2022-11-16T05:44:12.169Z,61.88
2022-11-16T05:47:16.171Z,61.63
2022-11-16T05:50:20.332Z,62.32
2022-11-16T05:53:36.479Z,62.26
2022-11-16T05:56:43.377Z,62.81
2022-11-16T05:59:46.886Z,62.24
2022-11-16T06:02:51.587Z,62.11
2022-11-16T06:06:00.111Z,61.90
2022-11-16T06:09:06.164Z,62.12
2022-11-16T06:12:12.294Z,62.25
2022-11-16T06:15:16.354Z,62.37
2022-11-16T06:18:19.987Z,63.46
2022-11-16T06:21:25.057Z,62.62
2022-11-16T06:24:29.872Z,62.49
2022-11-16T06:27:36.130Z,62.30
2022-11-16T06:30:40.650Z,62.05
2022-11-16T06:33:45.464Z,62.56
2022-11-16T06:36:57.330Z,62.52
2022-11-16T06:40:01.562Z,62.35
2022-11-16T06:43:10.477Z,62.13
2022-11-16T06:46:14.813Z,63.64
2022-11-16T06:49:18.664Z,62.72
2022-11-16T06:52:23.374Z,62.99
2022-11-16T06:55:27.382Z,63.03
2022-11-16T06:58:33.789Z,63.11
2022-11-16T07:01:37.738Z,63.23
2022-11-16T07:04:47.660Z,62.65
2022-11-16T07:07:55.399Z,62.90
2022-11-16T07:11:04.452Z,63.14
2022-11-16T07:14:11.832Z,62.69
2022-11-16T07:17:15.923Z,62.39
2022-11-16T07:20:19.558Z,62.84
2022-11-16T07:23:24.266Z,63.41
2022-11-16T07:26:28.920Z,63.92
2022-11-16T07:29:43.645Z,63.67
2022-11-16T07:33:05.699Z,63.49
2022-11-16T07:36:44.666Z,62.96
2022-11-16T07:39:48.197Z,62.80
2022-11-16T07:42:52.630Z,63.28
2022-11-16T07:49:49.025Z,63.27
2022-11-16T07:52:56.114Z,63.02
2022-11-16T07:55:59.874Z,63.21
2022-11-16T07:59:06.090Z,63.26
2022-11-16T08:02:15.375Z,63.55
2022-11-16T08:05:20.486Z,63.85
2022-11-16T08:08:26.447Z,64.64
2022-11-16T08:11:29.909Z,64.05
2022-11-16T08:14:33.882Z,64.77
2022-11-16T08:17:39.557Z,64.05
2022-11-16T08:20:46.644Z,65.05
2022-11-16T08:23:55.261Z,65.41
2022-11-16T08:27:02.328Z,65.32
2022-11-16T08:30:09.884Z,64.91
2022-11-16T08:33:17.925Z,65.69
2022-11-16T08:36:22.050Z,65.26
2022-11-16T08:39:26.501Z,64.85
2022-11-16T08:42:30.192Z,64.86
2022-11-16T08:45:34.584Z,65.29
2022-11-16T08:48:39.752Z,65.96
2022-11-16T08:51:44.194Z,65.28
2022-11-16T08:54:47.879Z,65.30
2022-11-16T08:57:53.542Z,65.36
2022-11-16T09:00:57.111Z,65.88
2022-11-16T09:04:02.293Z,65.88
2022-11-16T09:07:05.667Z,66.06
2022-11-16T09:10:10.423Z,66.58
2022-11-16T09:13:13.889Z,67.70
2022-11-16T09:16:20.709Z,68.24
2022-11-16T09:19:25.639Z,67.91
2022-11-16T09:22:29.652Z,67.89
2022-11-16T09:25:33.082Z,67.32
2022-11-16T09:28:37.151Z,67.36
2022-11-16T09:31:40.748Z,68.32
2022-11-16T09:34:46.439Z,68.45
2022-11-16T09:37:50.787Z,67.77
2022-11-16T09:40:59.031Z,67.78
2022-11-16T09:44:13.578Z,68.34
2022-11-16T09:47:21.963Z,68.11
2022-11-16T09:50:42.677Z,69.80
2022-11-16T09:53:50.595Z,68.75
2022-11-16T09:57:00.664Z,68.63
2022-11-16T10:00:15.634Z,68.03
2022-11-16T10:03:20.505Z,68.43
2022-11-16T10:06:36.981Z,68.69
2022-11-16T10:09:41.384Z,68.35
2022-11-16T10:12:51.592Z,68.65
2022-11-16T10:16:08.179Z,68.21
2022-11-16T10:19:22.739Z,68.16
2022-11-16T10:22:46.254Z,68.16
2022-11-16T10:25:55.863Z,68.34
2022-11-16T10:29:28.152Z,68.20
2022-11-16T10:32:38.190Z,68.08
2022-11-16T10:35:47.412Z,68.33
2022-11-16T10:38:53.383Z,68.52
2022-11-16T10:42:07.238Z,68.69
2022-11-16T10:45:20.753Z,69.16
2022-11-16T10:48:37.542Z,68.54
2022-11-16T10:51:41.970Z,68.95
2022-11-16T10:54:47.089Z,68.73
2022-11-16T10:57:59.257Z,68.43
2022-11-16T11:01:03.076Z,68.19
2022-11-16T11:04:16.198Z,68.21
2022-11-16T11:07:30.599Z,67.82
2022-11-16T11:10:37.674Z,67.68
2022-11-16T11:14:10.185Z,68.06
2022-11-16T11:17:19.134Z,67.58
2022-11-16T11:20:25.043Z,68.10
2022-11-16T11:23:29.217Z,68.73
2022-11-16T11:26:37.630Z,68.48
2022-11-16T11:29:44.222Z,68.62
2022-11-16T11:32:48.481Z,67.89
2022-11-16T11:36:01.855Z,68.12
2022-11-16T11:39:08.484Z,68.10
2022-11-16T11:42:24.545Z,68.28
2022-11-16T11:45:36.431Z,68.06
2022-11-16T11:48:49.394Z,68.18
2022-11-16T11:51:55.958Z,68.33
2022-11-16T11:55:01.541Z,68.17
2022-11-16T11:58:08.105Z,68.03
2022-11-16T12:01:35.467Z,67.78
2022-11-16T12:05:24.419Z,68.18
2022-11-16T12:08:48.062Z,68.63
2022-11-16T12:12:02.650Z,69.33
2022-11-16T12:15:28.103Z,69.02
2022-11-16T12:18:46.440Z,69.14
2022-11-16T12:22:04.330Z,69.52
2022-11-16T12:25:21.970Z,68.99
2022-11-16T12:28:44.918Z,69.68
2022-11-16T12:32:07.425Z,69.07
2022-11-16T12:35:33.058Z,69.24
2022-11-16T12:38:55.244Z,69.15
2022-11-16T12:42:26.905Z,69.41
2022-11-16T12:45:50.632Z,69.54
2022-11-16T12:49:27.696Z,69.62
2022-11-16T12:53:05.435Z,69.36
2022-11-16T12:56:21.091Z,69.06
2022-11-16T12:59:45.065Z,69.48
2022-11-16T13:03:11.526Z,69.34
2022-11-16T13:06:21.194Z,70.11
2022-11-16T13:09:28.848Z,70.16
2022-11-16T13:12:33.786Z,70.85
2022-11-16T13:15:40.560Z,70.98
2022-11-16T13:18:45.410Z,70.61
2022-11-16T13:21:56.270Z,70.88
2022-11-16T13:25:05.920Z,71.08
2022-11-16T13:28:23.055Z,71.38
2022-11-16T13:31:34.686Z,71.49
2022-11-16T13:34:40.896Z,70.87
2022-11-16T13:37:49.764Z,70.33
2022-11-16T13:40:53.527Z,70.63
2022-11-16T13:43:57.462Z,70.83
2022-11-16T13:47:06.059Z,70.90
2022-11-16T13:50:19.953Z,70.76
2022-11-16T13:54:24.980Z,71.85
2022-11-16T13:56:53.031Z,71.24
2022-11-16T14:00:11.626Z,71.46
2022-11-16T14:03:31.664Z,71.86
2022-11-16T14:06:59.410Z,71.22
2022-11-16T14:10:07.932Z,71.29
2022-11-16T14:13:39.363Z,72.50
2022-11-16T14:16:48.900Z,71.80
2022-11-16T14:19:57.742Z,72.63
2022-11-16T14:23:36.922Z,72.74
2022-11-16T14:26:58.341Z,72.75
2022-11-16T14:30:15.138Z,72.41
2022-11-16T14:33:31.307Z,73.51
2022-11-16T14:36:42.650Z,73.19
2022-11-16T14:39:47.047Z,72.52
2022-11-16T14:43:15.273Z,72.73
2022-11-16T14:46:24.208Z,72.69
2022-11-16T14:49:29.190Z,73.07
2022-11-16T14:52:39.707Z,72.50
2022-11-16T14:55:44.959Z,72.89
2022-11-16T14:58:54.519Z,72.95
2022-11-16T15:01:58.300Z,72.73
2022-11-16T15:05:02.329Z,73.09
2022-11-16T15:08:18.499Z,73.33
2022-11-16T15:11:47.361Z,72.92
2022-11-16T15:14:55.390Z,73.49
2022-11-16T15:18:15.095Z,73.69
2022-11-16T15:21:23.590Z,73.24
2022-11-16T15:24:31.072Z,73.67
2022-11-16T15:27:38.175Z,74.39
2022-11-16T15:30:46.849Z,73.96
2022-11-16T15:33:51.114Z,74.27
2022-11-16T15:36:55.152Z,74.12
2022-11-16T15:40:00.221Z,74.71
2022-11-16T15:43:07.003Z,74.58
2022-11-16T15:49:45.382Z,74.44
2022-11-16T15:52:53.099Z,73.95
2022-11-16T15:55:57.009Z,74.01
2022-11-16T15:59:10.635Z,74.20
2022-11-16T16:02:20.142Z,74.13
2022-11-16T16:05:34.831Z,73.99
2022-11-16T16:08:41.751Z,73.99
2022-11-16T16:11:45.263Z,74.06
2022-11-16T16:14:50.205Z,73.98
2022-11-16T16:17:55.665Z,74.06
2022-11-16T16:20:59.542Z,74.07
2022-11-16T16:24:03.839Z,74.24
2022-11-16T16:27:13.294Z,74.15
2022-11-16T16:30:18.088Z,74.13
2022-11-16T16:33:28.552Z,73.62
2022-11-16T16:36:32.183Z,73.86
2022-11-16T16:39:36.246Z,74.06
2022-11-16T16:42:40.935Z,74.15
2022-11-16T16:45:45.527Z,74.18
2022-11-16T16:48:50.218Z,74.12
2022-11-16T16:51:54.372Z,73.97
2022-11-16T16:54:57.784Z,73.94
2022-11-16T16:58:03.156Z,73.95
2022-11-16T17:01:07.236Z,73.82
2022-11-16T17:04:12.329Z,74.09
2022-11-16T17:07:16.264Z,74.41
2022-11-16T17:10:21.301Z,73.95
2022-11-16T17:13:24.715Z,74.16
2022-11-16T17:16:28.357Z,73.69
2022-11-16T17:19:33.245Z,74.09
2022-11-16T17:22:37.563Z,73.63
2022-11-16T17:25:41.000Z,73.53
2022-11-16T17:28:44.722Z,74.07
2022-11-16T17:31:48.896Z,73.79
2022-11-16T17:34:54.126Z,73.88
2022-11-16T17:37:58.717Z,73.92
2022-11-16T17:41:06.936Z,74.22
2022-11-16T17:44:10.271Z,73.86
2022-11-16T17:47:13.935Z,73.84
2022-11-16T17:50:18.755Z,73.45
2022-11-16T17:53:22.418Z,73.79
2022-11-16T17:56:28.062Z,74.10
2022-11-16T17:59:31.714Z,73.87
2022-11-16T18:02:35.163Z,73.84
2022-11-16T18:05:40.328Z,73.60
2022-11-16T18:08:44.933Z,73.81
2022-11-16T18:11:48.696Z,73.55
2022-11-16T18:15:21.334Z,73.86
2022-11-16T18:18:18.022Z,73.54
2022-11-16T18:21:23.145Z,73.85
2022-11-16T18:24:27.215Z,73.63
2022-11-16T18:27:30.886Z,73.79
2022-11-16T18:30:34.710Z,73.68
2022-11-16T18:33:39.412Z,73.24
2022-11-16T18:36:46.390Z,73.26
2022-11-16T18:39:50.086Z,73.40
2022-11-16T18:42:54.024Z,73.19
2022-11-16T18:45:58.157Z,73.09
2022-11-16T18:49:02.450Z,73.42
2022-11-16T18:52:07.561Z,73.41
2022-11-16T18:55:11.612Z,73.35
2022-11-16T18:58:43.374Z,73.34
2022-11-16T19:01:38.779Z,73.65
2022-11-16T19:04:42.730Z,73.23
2022-11-16T19:07:47.835Z,73.61
2022-11-16T19:10:51.213Z,73.33
2022-11-16T19:13:57.143Z,73.00
2022-11-16T19:17:00.977Z,73.40
2022-11-16T19:20:05.047Z,73.48
2022-11-16T19:23:09.838Z,74.38
2022-11-16T19:26:14.954Z,73.96
2022-11-16T19:29:18.333Z,73.48
2022-11-16T19:32:22.044Z,73.37
2022-11-16T19:35:25.390Z,73.44
2022-11-16T19:38:31.918Z,73.85
2022-11-16T19:41:35.534Z,73.58
2022-11-16T19:44:39.332Z,73.42
2022-11-16T19:47:42.733Z,73.62
2022-11-16T19:50:46.498Z,73.96
2022-11-16T19:53:51.645Z,74.26
2022-11-16T19:56:55.511Z,73.89
2022-11-16T19:59:58.971Z,73.36
2022-11-16T20:03:02.674Z,73.46
2022-11-16T20:06:08.602Z,73.22
2022-11-16T20:09:13.697Z,73.71
2022-11-16T20:12:17.067Z,73.69
2022-11-16T20:15:22.658Z,73.39
2022-11-16T20:18:26.014Z,73.59
2022-11-16T20:21:33.170Z,73.19
2022-11-16T20:24:37.941Z,73.69
2022-11-16T20:27:41.576Z,73.41
2022-11-16T20:30:47.208Z,73.74
2022-11-16T20:33:52.541Z,73.26
2022-11-16T20:36:56.189Z,73.03
2022-11-16T20:40:02.351Z,73.20
2022-11-16T20:43:09.142Z,73.26
2022-11-16T20:46:15.211Z,73.57
2022-11-16T20:49:18.596Z,73.54
2022-11-16T20:52:22.375Z,73.36
2022-11-16T20:55:27.100Z,73.12
2022-11-16T20:58:31.239Z,73.08
2022-11-16T21:01:35.167Z,72.89
2022-11-16T21:04:38.952Z,73.11
2022-11-16T21:07:43.915Z,72.93
2022-11-16T21:10:49.925Z,73.35
2022-11-16T21:14:11.612Z,73.56
2022-11-16T21:17:15.242Z,74.88
2022-11-16T21:20:28.147Z,74.05
2022-11-16T21:23:34.645Z,74.24
2022-11-16T21:26:39.843Z,74.07
2022-11-16T21:29:43.620Z,74.34
2022-11-16T21:32:47.277Z,73.85
2022-11-16T21:35:53.077Z,73.47
2022-11-16T21:38:59.264Z,73.47
2022-11-16T21:42:05.675Z,73.94
2022-11-16T21:45:11.020Z,74.97
2022-11-16T21:48:15.499Z,74.24
2022-11-16T21:51:20.375Z,73.91
2022-11-16T21:54:45.056Z,73.71
2022-11-16T21:57:50.256Z,74.13
2022-11-16T22:00:56.471Z,74.21
2022-11-16T22:04:17.985Z,74.31
2022-11-16T22:07:34.325Z,74.53
2022-11-16T22:10:38.883Z,74.52
2022-11-16T22:13:45.159Z,74.71
2022-11-16T22:16:49.057Z,74.80
2022-11-16T22:19:53.865Z,75.34
2022-11-16T22:22:57.793Z,75.89
2022-11-16T22:26:04.020Z,75.64
2022-11-16T22:29:09.906Z,77.16
2022-11-16T22:32:15.095Z,76.44
2022-11-16T22:35:19.611Z,75.72
2022-11-16T22:38:24.708Z,75.49
2022-11-16T22:41:30.891Z,75.09
2022-11-16T22:44:36.637Z,75.06
2022-11-16T22:47:42.010Z,74.99
2022-11-16T22:50:46.311Z,74.70
2022-11-16T22:53:53.906Z,74.55
2022-11-16T22:57:17.223Z,74.51
2022-11-16T23:00:22.839Z,74.33
2022-11-16T23:03:27.491Z,74.43
2022-11-16T23:06:31.270Z,74.89
2022-11-16T23:09:36.314Z,74.94
2022-11-16T23:12:57.962Z,74.20
2022-11-16T23:16:07.377Z,74.13
2022-11-16T23:19:27.485Z,74.26
2022-11-16T23:22:49.668Z,74.41
2022-11-16T23:26:11.732Z,74.27
2022-11-16T23:29:16.988Z,73.93
2022-11-16T23:32:22.441Z,74.00
2022-11-16T23:35:26.760Z,74.13
2022-11-16T23:38:30.939Z,73.49
2022-11-16T23:41:52.923Z,73.32
2022-11-16T23:44:57.132Z,73.48
2022-11-16T23:48:03.025Z,73.38
2022-11-16T23:51:07.134Z,73.59
2022-11-16T23:54:11.633Z,73.33
2022-11-16T23:57:16.053Z,73.02
